Time;durP1;ratioP1;P1;durP2;ratioP2;P2;SDS_P1;SDS_P2;PMS_P1;PMS_P2;Temp;Humidity;BMP_temperature;BMP_pressure;BME280_temperature;BME280_humidity;BME280_pressure;Samples;Min_cycle;Max_cycle;Signal;HPM_P1;HPM_P2
2023/03/07 00:00:58;;;;;;;47.38;20.17;;;;;;;;;;5053822;28;20048;-81
2023/03/07 00:03:25;;;;;;;47.58;18.55;;;;;;;;;;5074989;28;20062;-80
2023/03/07 00:06:05;;;;;;;49.20;19.45;;;;;;;;;;5073307;28;20075;-81
2023/03/07 00:08:33;;;;;;;47.28;19.80;;;;;;;;;;5072917;28;20054;-80
2023/03/07 00:11:03;;;;;;;47.40;19.83;;;;;;;;;;5073910;28;20397;-80
2023/03/07 00:13:30;;;;;;;48.78;18.63;;;;;;;;;;5055107;28;20044;-80
2023/03/07 00:16:04;;;;;;;38.97;17.88;;;;;;;;;;5055451;28;20087;-79
2023/03/07 00:18:31;;;;;;;44.15;18.77;;;;;;;;;;5053437;28;20063;-79
2023/03/07 00:20:58;;;;;;;43.33;18.58;;;;;;;;;;5072665;28;20044;-80
2023/03/07 00:23:25;;;;;;;45.55;20.08;;;;;;;;;;5054540;28;20047;-80
2023/03/07 00:26:02;;;;;;;47.35;19.27;;;;;;;;;;5072885;28;20590;-80
2023/03/07 00:28:30;;;;;;;43.17;18.75;;;;;;;;;;5031242;28;20038;-80
2023/03/07 00:31:01;;;;;;;42.10;18.50;;;;;;;;;;5044696;28;20049;-81
2023/03/07 00:33:28;;;;;;;43.58;19.25;;;;;;;;;;5045095;28;20056;-80
2023/03/07 00:35:58;;;;;;;47.17;19.85;;;;;;;;;;5065259;28;20136;-80
2023/03/07 00:38:25;;;;;;;44.35;20.15;;;;;;;;;;5033231;28;20049;-80
2023/03/07 00:40:55;;;;;;;44.90;19.48;;;;;;;;;;5065413;28;20124;-79
2023/03/07 00:43:21;;;;;;;41.20;18.95;;;;;;;;;;5033375;28;20038;-79
2023/03/07 00:45:48;;;;;;;41.05;18.90;;;;;;;;;;5065926;28;20128;-79
2023/03/07 00:48:14;;;;;;;44.92;18.70;;;;;;;;;;5049415;28;20046;-80
2023/03/07 00:50:41;;;;;;;48.00;19.30;;;;;;;;;;5048477;28;20103;-80
2023/03/07 00:53:07;;;;;;;42.75;18.55;;;;;;;;;;5032136;28;20051;-79
2023/03/07 00:55:34;;;;;;;45.65;20.45;;;;;;;;;;5032394;28;20042;-80
2023/03/07 00:58:01;;;;;;;46.85;19.70;;;;;;;;;;5031870;28;20076;-80
2023/03/07 01:00:28;;;;;;;44.20;19.33;;;;;;;;;;5034789;28;20106;-81
2023/03/07 01:02:56;;;;;;;47.83;19.73;;;;;;;;;;5051813;28;20076;-81
2023/03/07 01:05:23;;;;;;;46.50;19.25;;;;;;;;;;5052663;28;20053;-81
2023/03/07 01:07:50;;;;;;;46.20;20.65;;;;;;;;;;5050876;28;20056;-81
2023/03/07 01:10:16;;;;;;;48.63;20.25;;;;;;;;;;5067440;28;20051;-82
2023/03/07 01:12:43;;;;;;;46.83;19.90;;;;;;;;;;5072054;28;20148;-81
2023/03/07 01:15:11;;;;;;;47.78;20.38;;;;;;;;;;5058325;28;20045;-82
2023/03/07 01:17:37;;;;;;;44.70;19.55;;;;;;;;;;5034806;28;20128;-81
2023/03/07 01:20:08;;;;;;;45.97;20.20;;;;;;;;;;5053488;28;20037;-79
2023/03/07 01:22:35;;;;;;;45.28;19.77;;;;;;;;;;5038930;28;20047;-81
2023/03/07 01:25:03;;;;;;;43.15;19.42;;;;;;;;;;5074098;28;20044;-82
2023/03/07 01:27:30;;;;;;;48.28;19.88;;;;;;;;;;5039924;28;20068;-81
2023/03/07 01:29:57;;;;;;;46.85;20.77;;;;;;;;;;5037685;28;20084;-80
2023/03/07 01:32:23;;;;;;;42.72;19.98;;;;;;;;;;5038604;28;20048;-81
2023/03/07 01:34:50;;;;;;;47.55;20.90;;;;;;;;;;5042215;28;20068;-80
2023/03/07 01:37:18;;;;;;;45.85;19.30;;;;;;;;;;5043953;28;20046;-80
2023/03/07 01:39:45;;;;;;;46.28;20.52;;;;;;;;;;5060494;28;20135;-81
2023/03/07 01:42:15;;;;;;;48.80;21.17;;;;;;;;;;5065232;28;20041;-80
2023/03/07 01:45:00;;;;;;;44.85;18.90;;;;;;;;;;5097543;28;20044;-81
2023/03/07 01:47:37;;;;;;;45.58;19.63;;;;;;;;;;5098685;28;20043;-81
2023/03/07 01:50:09;;;;;;;43.45;19.88;;;;;;;;;;5061528;28;20041;-81
2023/03/07 01:52:41;;;;;;;52.78;20.90;;;;;;;;;;5030870;28;20041;-81
2023/03/07 01:55:11;;;;;;;47.63;20.67;;;;;;;;;;5039352;28;20524;-81
2023/03/07 01:57:39;;;;;;;50.55;21.08;;;;;;;;;;5025272;28;20232;-81
2023/03/07 02:00:09;;;;;;;48.88;20.65;;;;;;;;;;5023856;28;20042;-80
2023/03/07 02:02:41;;;;;;;50.50;20.90;;;;;;;;;;5028718;28;20053;-81
2023/03/07 02:05:11;;;;;;;53.72;21.38;;;;;;;;;;5038581;28;20083;-81
2023/03/07 02:07:45;;;;;;;46.17;20.77;;;;;;;;;;5039458;28;20048;-81
2023/03/07 02:10:14;;;;;;;46.75;19.88;;;;;;;;;;5041163;28;20049;-82
2023/03/07 02:12:41;;;;;;;45.72;20.25;;;;;;;;;;5039428;28;20056;-81
2023/03/07 02:15:09;;;;;;;43.33;19.50;;;;;;;;;;5035990;28;20045;-81
2023/03/07 02:17:36;;;;;;;44.95;19.75;;;;;;;;;;5036961;28;20205;-80
2023/03/07 02:20:12;;;;;;;44.10;17.90;;;;;;;;;;5035757;28;20431;-80
2023/03/07 02:22:39;;;;;;;44.10;18.60;;;;;;;;;;5035847;28;20049;-80
2023/03/07 02:25:21;;;;;;;46.97;19.40;;;;;;;;;;5033876;28;20045;-79
2023/03/07 02:27:48;;;;;;;43.13;19.08;;;;;;;;;;5033916;28;20080;-80
2023/03/07 02:30:15;;;;;;;46.85;18.70;;;;;;;;;;5033793;28;20081;-80
2023/03/07 02:32:43;;;;;;;47.13;18.90;;;;;;;;;;5035148;28;20184;-81
2023/03/07 02:35:14;;;;;;;45.58;17.98;;;;;;;;;;5030666;28;20627;-81
2023/03/07 02:37:44;;;;;;;42.42;18.77;;;;;;;;;;5048006;28;20107;-81
2023/03/07 02:40:14;;;;;;;36.70;16.98;;;;;;;;;;5031111;28;20033;-79
2023/03/07 02:42:41;;;;;;;40.65;17.58;;;;;;;;;;5022922;28;20034;-79
2023/03/07 02:45:13;;;;;;;43.67;18.27;;;;;;;;;;5028275;28;20045;-79
2023/03/07 02:47:41;;;;;;;36.42;15.10;;;;;;;;;;5031020;28;20124;-79
2023/03/07 02:50:10;;;;;;;39.85;16.83;;;;;;;;;;5047701;28;20045;-80
2023/03/07 02:52:40;;;;;;;37.60;15.40;;;;;;;;;;5046830;28;20071;-79
2023/03/07 02:55:09;;;;;;;37.33;15.02;;;;;;;;;;5029479;28;20053;-78
2023/03/07 02:57:40;;;;;;;36.75;15.63;;;;;;;;;;5046691;28;20533;-79
2023/03/07 03:00:09;;;;;;;37.40;15.95;;;;;;;;;;5067236;28;20088;-80
2023/03/07 03:02:35;;;;;;;32.80;14.50;;;;;;;;;;5068486;28;20127;-80
2023/03/07 03:05:03;;;;;;;39.22;15.50;;;;;;;;;;5038616;28;20056;-81
2023/03/07 03:07:29;;;;;;;38.58;15.23;;;;;;;;;;5052825;28;20049;-79
2023/03/07 03:09:56;;;;;;;31.63;14.00;;;;;;;;;;5034539;28;20080;-80
2023/03/07 03:12:25;;;;;;;34.78;14.50;;;;;;;;;;5029386;28;20119;-79
2023/03/07 03:14:52;;;;;;;36.05;14.73;;;;;;;;;;5046614;28;20053;-80
2023/03/07 03:17:18;;;;;;;33.10;14.32;;;;;;;;;;5055470;28;20040;-80
2023/03/07 03:19:45;;;;;;;32.00;14.05;;;;;;;;;;5057280;28;20041;-79
2023/03/07 03:22:11;;;;;;;35.08;15.13;;;;;;;;;;5074907;28;20066;-80
2023/03/07 03:24:42;;;;;;;31.98;13.93;;;;;;;;;;5055209;28;20111;-79
2023/03/07 03:27:12;;;;;;;32.03;14.68;;;;;;;;;;5072927;28;20106;-79
2023/03/07 03:29:42;;;;;;;34.83;14.20;;;;;;;;;;5037140;28;20417;-79
2023/03/07 03:32:09;;;;;;;33.60;14.15;;;;;;;;;;5020872;28;20461;-79
2023/03/07 03:34:37;;;;;;;32.17;13.65;;;;;;;;;;5036473;28;20044;-81
2023/03/07 03:37:03;;;;;;;31.48;14.05;;;;;;;;;;5035977;28;20120;-79
2023/03/07 03:39:30;;;;;;;37.33;14.75;;;;;;;;;;5035524;28;20044;-80
2023/03/07 03:41:58;;;;;;;32.63;13.32;;;;;;;;;;5037615;28;20069;-79
2023/03/07 03:44:25;;;;;;;31.40;13.43;;;;;;;;;;5037417;28;20065;-78
2023/03/07 03:46:54;;;;;;;32.45;12.77;;;;;;;;;;5037692;28;20056;-80
2023/03/07 03:49:22;;;;;;;34.28;13.60;;;;;;;;;;5035127;28;20140;-80
2023/03/07 03:51:51;;;;;;;30.15;13.02;;;;;;;;;;5019414;28;20056;-81
2023/03/07 03:54:17;;;;;;;30.15;13.25;;;;;;;;;;5033846;28;20060;-80
2023/03/07 03:56:44;;;;;;;32.15;13.07;;;;;;;;;;5034349;28;20050;-80
2023/03/07 03:59:10;;;;;;;29.95;13.45;;;;;;;;;;5035312;28;20045;-81
2023/03/07 04:01:37;;;;;;;29.55;12.75;;;;;;;;;;5035472;28;20053;-81
2023/03/07 04:04:04;;;;;;;35.22;14.50;;;;;;;;;;5034260;28;20060;-79
2023/03/07 04:06:33;;;;;;;34.22;13.32;;;;;;;;;;5033171;28;20049;-79
2023/03/07 04:09:02;;;;;;;33.63;14.05;;;;;;;;;;5033504;28;20068;-80
2023/03/07 04:11:30;;;;;;;29.75;12.68;;;;;;;;;;5033063;28;20045;-80
2023/03/07 04:13:58;;;;;;;30.85;13.13;;;;;;;;;;5033464;28;20037;-80
2023/03/07 04:16:24;;;;;;;28.52;12.90;;;;;;;;;;5034520;28;20088;-80
2023/03/07 04:18:51;;;;;;;33.10;14.25;;;;;;;;;;5034476;28;20064;-80
2023/03/07 04:21:19;;;;;;;34.33;13.50;;;;;;;;;;5034469;28;20121;-80
2023/03/07 04:23:48;;;;;;;28.25;12.57;;;;;;;;;;5033304;28;20060;-80
2023/03/07 04:26:15;;;;;;;33.47;14.15;;;;;;;;;;5031399;28;20037;-79
2023/03/07 04:28:45;;;;;;;30.30;11.77;;;;;;;;;;5033930;28;20485;-81
2023/03/07 04:31:16;;;;;;;29.38;12.48;;;;;;;;;;5030778;28;20045;-81
2023/03/07 04:33:43;;;;;;;32.13;14.23;;;;;;;;;;5033556;28;20045;-81
2023/03/07 04:36:11;;;;;;;31.08;13.38;;;;;;;;;;5031324;28;20469;-78
2023/03/07 04:38:38;;;;;;;32.90;13.18;;;;;;;;;;5034563;28;20045;-80
2023/03/07 04:41:09;;;;;;;31.23;12.18;;;;;;;;;;5032730;28;20566;-81
2023/03/07 04:43:36;;;;;;;30.35;12.85;;;;;;;;;;5035622;28;20084;-81
2023/03/07 04:46:03;;;;;;;34.35;13.60;;;;;;;;;;5034421;28;20049;-79
2023/03/07 04:48:29;;;;;;;27.33;12.38;;;;;;;;;;5033749;28;20045;-80
2023/03/07 04:50:56;;;;;;;33.88;13.38;;;;;;;;;;5029814;28;20064;-80
2023/03/07 04:53:23;;;;;;;31.83;13.55;;;;;;;;;;5033699;28;20111;-80
2023/03/07 04:55:50;;;;;;;30.58;13.00;;;;;;;;;;5031301;28;20056;-80
2023/03/07 04:58:16;;;;;;;29.27;12.18;;;;;;;;;;5032795;28;20485;-80
2023/03/07 05:00:44;;;;;;;32.30;13.90;;;;;;;;;;5032812;28;20133;-80
2023/03/07 05:03:11;;;;;;;31.38;13.75;;;;;;;;;;5032793;28;20048;-79
2023/03/07 05:05:38;;;;;;;27.95;12.05;;;;;;;;;;5032008;28;20100;-80
2023/03/07 05:08:04;;;;;;;29.15;12.35;;;;;;;;;;5030211;28;20117;-78
2023/03/07 05:10:32;;;;;;;29.65;12.80;;;;;;;;;;5029651;28;20034;-79
2023/03/07 05:13:00;;;;;;;32.80;13.40;;;;;;;;;;5031483;28;20041;-79
2023/03/07 05:15:27;;;;;;;29.25;12.40;;;;;;;;;;5006838;28;20068;-80
2023/03/07 05:17:53;;;;;;;30.50;12.68;;;;;;;;;;5013924;28;20046;-80
2023/03/07 05:20:20;;;;;;;30.13;13.07;;;;;;;;;;5051023;28;20064;-79
2023/03/07 05:22:47;;;;;;;31.88;12.68;;;;;;;;;;5028135;28;20129;-80
2023/03/07 05:25:14;;;;;;;29.65;13.27;;;;;;;;;;5025762;28;20048;-80
2023/03/07 05:27:41;;;;;;;33.33;12.98;;;;;;;;;;5029444;28;20088;-78
2023/03/07 05:30:09;;;;;;;28.30;12.45;;;;;;;;;;5048728;28;20055;-78
2023/03/07 05:32:35;;;;;;;30.83;12.70;;;;;;;;;;5060748;28;20045;-80
2023/03/07 05:35:03;;;;;;;28.17;12.10;;;;;;;;;;5030922;28;20131;-80
2023/03/07 05:37:30;;;;;;;27.95;12.57;;;;;;;;;;5030529;28;20033;-81
2023/03/07 05:39:56;;;;;;;28.70;12.48;;;;;;;;;;5033178;28;20552;-80
2023/03/07 05:42:23;;;;;;;27.55;11.43;;;;;;;;;;5035388;28;20048;-80
2023/03/07 05:44:50;;;;;;;27.73;11.48;;;;;;;;;;5060411;28;20045;-80
2023/03/07 05:47:16;;;;;;;26.85;11.38;;;;;;;;;;5062227;28;20529;-81
2023/03/07 05:49:43;;;;;;;27.70;11.55;;;;;;;;;;5039974;28;20042;-80
2023/03/07 05:52:11;;;;;;;26.40;11.48;;;;;;;;;;5063664;28;20113;-80
2023/03/07 05:54:38;;;;;;;26.63;10.88;;;;;;;;;;5065015;28;20073;-81
2023/03/07 05:57:04;;;;;;;25.70;10.88;;;;;;;;;;5032716;28;20049;-79
2023/03/07 05:59:31;;;;;;;27.05;11.82;;;;;;;;;;5015908;28;20113;-79
2023/03/07 06:01:57;;;;;;;24.98;10.65;;;;;;;;;;5030227;28;20079;-79
2023/03/07 06:04:24;;;;;;;29.90;11.40;;;;;;;;;;5031296;28;20041;-80
2023/03/07 06:06:51;;;;;;;24.27;10.52;;;;;;;;;;5018607;28;20045;-79
2023/03/07 06:09:17;;;;;;;27.05;10.68;;;;;;;;;;5037874;28;20144;-79
2023/03/07 06:11:44;;;;;;;25.83;10.50;;;;;;;;;;5015825;28;20045;-79
2023/03/07 06:14:10;;;;;;;26.80;10.95;;;;;;;;;;5012514;28;20037;-78
2023/03/07 06:16:37;;;;;;;24.63;10.25;;;;;;;;;;5029465;28;20045;-79
2023/03/07 06:19:03;;;;;;;21.65;10.02;;;;;;;;;;5020193;28;20085;-79
2023/03/07 06:21:30;;;;;;;23.48;9.60;;;;;;;;;;5028361;28;20054;-79
2023/03/07 06:23:57;;;;;;;22.27;9.98;;;;;;;;;;5027027;28;20049;-79
2023/03/07 06:26:23;;;;;;;22.58;9.63;;;;;;;;;;5026805;28;20055;-79
2023/03/07 06:28:52;;;;;;;20.70;9.63;;;;;;;;;;5063674;28;20623;-79
2023/03/07 06:31:19;;;;;;;23.77;10.75;;;;;;;;;;5033453;28;20076;-80
2023/03/07 06:33:47;;;;;;;21.20;9.57;;;;;;;;;;5051238;28;20061;-79
2023/03/07 06:36:17;;;;;;;21.30;8.90;;;;;;;;;;5050195;28;20561;-80
2023/03/07 06:38:46;;;;;;;25.77;11.13;;;;;;;;;;5084587;28;20045;-80
2023/03/07 06:41:13;;;;;;;23.42;10.50;;;;;;;;;;5049230;28;20041;-80
2023/03/07 06:43:40;;;;;;;20.63;9.85;;;;;;;;;;5050368;28;20033;-80
2023/03/07 06:46:06;;;;;;;18.20;8.65;;;;;;;;;;5049529;28;20401;-80
2023/03/07 06:48:37;;;;;;;23.75;10.40;;;;;;;;;;5067491;28;20036;-79
2023/03/07 06:51:07;;;;;;;22.55;9.73;;;;;;;;;;5034548;28;20398;-79
2023/03/07 06:53:34;;;;;;;25.63;10.45;;;;;;;;;;5032820;28;20055;-80
2023/03/07 06:56:03;;;;;;;23.13;9.88;;;;;;;;;;5015169;28;20381;-80
2023/03/07 06:58:31;;;;;;;24.98;10.07;;;;;;;;;;5032492;28;20120;-80
2023/03/07 07:00:58;;;;;;;23.13;10.13;;;;;;;;;;5021565;28;20521;-80
2023/03/07 07:03:25;;;;;;;22.35;10.20;;;;;;;;;;5013702;28;20045;-80
2023/03/07 07:05:54;;;;;;;25.08;10.45;;;;;;;;;;5030145;28;20046;-79
2023/03/07 07:08:21;;;;;;;24.52;9.90;;;;;;;;;;5026954;28;20094;-79
2023/03/07 07:10:47;;;;;;;23.05;10.68;;;;;;;;;;5028329;28;20041;-79
2023/03/07 07:13:14;;;;;;;22.33;10.13;;;;;;;;;;5028357;28;20052;-79
2023/03/07 07:15:41;;;;;;;23.85;10.40;;;;;;;;;;5028066;28;20061;-78
2023/03/07 07:18:10;;;;;;;20.73;9.70;;;;;;;;;;5026285;28;20409;-78
2023/03/07 07:20:37;;;;;;;20.90;9.65;;;;;;;;;;5026509;28;20049;-78
2023/03/07 07:23:03;;;;;;;19.30;8.65;;;;;;;;;;5035116;28;20059;-78
2023/03/07 07:25:30;;;;;;;20.35;8.80;;;;;;;;;;5031070;28;20034;-78
2023/03/07 07:27:56;;;;;;;20.10;9.23;;;;;;;;;;5028016;28;20292;-77
2023/03/07 07:30:23;;;;;;;19.05;8.70;;;;;;;;;;5059423;28;20092;-78
2023/03/07 07:32:51;;;;;;;18.45;7.93;;;;;;;;;;5027479;28;20562;-79
2023/03/07 07:35:19;;;;;;;17.60;8.13;;;;;;;;;;5060194;28;20041;-78
2023/03/07 07:37:46;;;;;;;18.00;7.78;;;;;;;;;;5044334;28;20505;-78
2023/03/07 07:40:14;;;;;;;16.98;8.23;;;;;;;;;;5027760;28;20038;-80
2023/03/07 07:42:42;;;;;;;16.75;7.65;;;;;;;;;;5026115;28;20045;-78
2023/03/07 07:45:17;;;;;;;19.50;7.95;;;;;;;;;;5062626;28;20468;-79
2023/03/07 07:47:46;;;;;;;15.50;7.45;;;;;;;;;;5048710;28;20056;-79
2023/03/07 07:50:13;;;;;;;15.25;7.32;;;;;;;;;;5033327;28;20045;-78
2023/03/07 07:52:40;;;;;;;17.23;7.22;;;;;;;;;;5033134;28;20049;-79
2023/03/07 07:55:07;;;;;;;17.08;7.75;;;;;;;;;;5019489;28;20133;-79
2023/03/07 07:57:34;;;;;;;15.00;6.90;;;;;;;;;;5035703;28;20037;-79
2023/03/07 08:00:03;;;;;;;17.35;7.68;;;;;;;;;;5034559;28;20048;-78
2023/03/07 08:02:37;;;;;;;12.30;6.63;;;;;;;;;;5032404;28;20049;-78
2023/03/07 08:05:09;;;;;;;14.20;6.43;;;;;;;;;;5032138;28;20099;-79
2023/03/07 08:07:35;;;;;;;13.85;6.43;;;;;;;;;;5032339;28;20109;-78
2023/03/07 08:10:02;;;;;;;13.07;6.60;;;;;;;;;;5033044;28;20128;-80
2023/03/07 08:12:29;;;;;;;12.02;6.07;;;;;;;;;;5037129;28;20506;-78
2023/03/07 08:14:55;;;;;;;14.52;6.70;;;;;;;;;;5035621;28;20132;-78
2023/03/07 08:17:22;;;;;;;13.13;6.22;;;;;;;;;;5033315;28;20065;-78
2023/03/07 08:19:48;;;;;;;12.38;6.25;;;;;;;;;;5034043;28;20409;-79
2023/03/07 08:22:15;;;;;;;12.38;5.97;;;;;;;;;;5033796;28;20517;-79
2023/03/07 08:24:42;;;;;;;10.73;5.43;;;;;;;;;;5033015;28;20049;-78
2023/03/07 08:27:08;;;;;;;13.77;6.68;;;;;;;;;;5033230;28;20057;-79
2023/03/07 08:29:35;;;;;;;12.55;6.20;;;;;;;;;;5035094;28;20138;-79
2023/03/07 08:32:01;;;;;;;12.80;6.60;;;;;;;;;;5049566;28;20044;-80
2023/03/07 08:34:30;;;;;;;11.95;6.13;;;;;;;;;;5050924;28;20051;-79
2023/03/07 08:36:57;;;;;;;14.18;6.35;;;;;;;;;;5050660;28;20578;-79
2023/03/07 08:39:23;;;;;;;13.48;6.88;;;;;;;;;;5051573;28;20049;-79
2023/03/07 08:41:50;;;;;;;13.25;6.60;;;;;;;;;;5049055;28;20041;-79
2023/03/07 08:44:16;;;;;;;13.15;6.72;;;;;;;;;;5051520;28;20396;-78
2023/03/07 08:46:43;;;;;;;12.93;6.07;;;;;;;;;;5051528;28;20044;-79
2023/03/07 08:49:10;;;;;;;10.65;6.05;;;;;;;;;;5052011;28;20437;-79
2023/03/07 08:51:36;;;;;;;14.25;6.60;;;;;;;;;;5051507;28;20055;-79
2023/03/07 08:54:03;;;;;;;11.82;6.10;;;;;;;;;;5052012;28;20048;-78
2023/03/07 08:56:30;;;;;;;13.80;7.03;;;;;;;;;;5051306;28;20497;-78
2023/03/07 08:58:56;;;;;;;12.00;6.13;;;;;;;;;;5034874;28;20116;-78
2023/03/07 09:01:23;;;;;;;13.52;6.75;;;;;;;;;;5052981;28;20520;-78
2023/03/07 09:03:49;;;;;;;15.90;6.13;;;;;;;;;;5052418;28;20409;-79
2023/03/07 09:06:17;;;;;;;14.30;7.00;;;;;;;;;;5053324;28;20057;-79
2023/03/07 09:08:43;;;;;;;11.95;5.97;;;;;;;;;;5054183;28;20057;-78
2023/03/07 09:11:10;;;;;;;13.80;7.07;;;;;;;;;;5052260;28;20037;-79
2023/03/07 09:13:36;;;;;;;12.90;6.97;;;;;;;;;;5037759;28;20189;-79
2023/03/07 09:16:17;;;;;;;14.73;6.68;;;;;;;;;;5053179;28;20250;-79
2023/03/07 09:18:43;;;;;;;12.23;6.43;;;;;;;;;;5052268;28;20079;-79
2023/03/07 09:21:10;;;;;;;12.13;6.60;;;;;;;;;;5051904;28;20087;-78
2023/03/07 09:23:36;;;;;;;14.68;6.90;;;;;;;;;;5051689;28;20064;-78
2023/03/07 09:26:04;;;;;;;15.23;7.38;;;;;;;;;;5032622;28;20055;-78
2023/03/07 09:28:32;;;;;;;14.23;7.22;;;;;;;;;;5033790;28;20045;-78
2023/03/07 09:30:59;;;;;;;14.25;7.30;;;;;;;;;;5052066;28;20306;-78
2023/03/07 09:33:26;;;;;;;14.57;6.75;;;;;;;;;;5049875;28;20041;-78
2023/03/07 09:35:52;;;;;;;13.25;6.65;;;;;;;;;;5049900;28;20041;-78
2023/03/07 09:38:19;;;;;;;13.57;7.32;;;;;;;;;;5050770;28;20041;-78
2023/03/07 09:40:46;;;;;;;13.30;7.10;;;;;;;;;;5051629;28;20056;-79
2023/03/07 09:43:19;;;;;;;15.18;7.30;;;;;;;;;;5051349;28;20049;-79
2023/03/07 09:46:06;;;;;;;14.20;7.07;;;;;;;;;;5051058;28;20041;-79
2023/03/07 09:48:45;;;;;;;14.38;6.80;;;;;;;;;;5051379;28;20037;-78
2023/03/07 09:51:24;;;;;;;13.45;6.55;;;;;;;;;;5051908;28;20053;-78
2023/03/07 09:53:59;;;;;;;13.52;6.78;;;;;;;;;;5052530;28;20044;-78
2023/03/07 09:56:30;;;;;;;17.88;7.50;;;;;;;;;;5050857;28;20052;-78
2023/03/07 09:59:00;;;;;;;13.18;6.93;;;;;;;;;;5054211;28;20455;-79
2023/03/07 10:01:36;;;;;;;12.85;6.72;;;;;;;;;;5056329;28;20044;-78
2023/03/07 10:04:04;;;;;;;12.18;6.93;;;;;;;;;;5052994;28;20109;-79
2023/03/07 10:06:38;;;;;;;13.70;6.78;;;;;;;;;;5053939;28;20123;-78
2023/03/07 10:09:09;;;;;;;13.27;6.70;;;;;;;;;;5053397;28;20079;-79
2023/03/07 10:11:43;;;;;;;14.88;7.40;;;;;;;;;;5055800;28;20064;-80
2023/03/07 10:14:30;;;;;;;13.00;6.82;;;;;;;;;;5055450;28;20143;-80
2023/03/07 10:17:19;;;;;;;16.63;7.43;;;;;;;;;;5055381;28;20061;-80
2023/03/07 10:19:49;;;;;;;15.18;8.15;;;;;;;;;;5026851;28;20430;-80
2023/03/07 10:22:26;;;;;;;15.02;7.18;;;;;;;;;;5035060;28;20445;-80
2023/03/07 10:24:52;;;;;;;13.35;6.70;;;;;;;;;;5032867;28;20049;-81
2023/03/07 10:27:21;;;;;;;11.07;5.95;;;;;;;;;;5035050;28;20052;-80
2023/03/07 10:29:49;;;;;;;13.00;7.03;;;;;;;;;;5038399;28;20073;-80
2023/03/07 10:32:16;;;;;;;13.70;6.40;;;;;;;;;;5038455;28;20053;-79
2023/03/07 10:34:42;;;;;;;14.40;7.13;;;;;;;;;;5051393;28;20123;-80
2023/03/07 10:37:09;;;;;;;13.90;6.72;;;;;;;;;;5036818;28;20129;-80
2023/03/07 10:39:56;;;;;;;14.05;6.60;;;;;;;;;;5049867;28;20029;-81
2023/03/07 10:42:24;;;;;;;12.77;6.65;;;;;;;;;;5041775;28;20037;-81
2023/03/07 10:44:50;;;;;;;14.30;6.95;;;;;;;;;;5036567;28;20045;-80
2023/03/07 10:47:21;;;;;;;12.63;6.80;;;;;;;;;;5051544;28;20041;-79
2023/03/07 10:49:49;;;;;;;13.90;7.00;;;;;;;;;;5030824;28;20539;-79
2023/03/07 10:52:26;;;;;;;13.02;6.13;;;;;;;;;;5052503;28;20041;-79
2023/03/07 10:54:54;;;;;;;12.70;6.65;;;;;;;;;;5052489;28;20037;-81
2023/03/07 10:57:26;;;;;;;11.55;6.25;;;;;;;;;;5053479;28;20045;-81
2023/03/07 10:59:52;;;;;;;14.38;6.32;;;;;;;;;;5058621;28;20115;-81
2023/03/07 11:02:28;;;;;;;13.50;6.85;;;;;;;;;;5057917;28;20033;-80
2023/03/07 11:04:54;;;;;;;14.15;6.68;;;;;;;;;;5056414;28;20053;-80
2023/03/07 11:07:29;;;;;;;15.13;6.60;;;;;;;;;;5056673;28;20041;-81
2023/03/07 11:09:57;;;;;;;12.68;6.95;;;;;;;;;;5068463;28;20053;-81
2023/03/07 11:12:25;;;;;;;15.98;7.80;;;;;;;;;;5068167;28;20041;-80
2023/03/07 11:15:14;;;;;;;12.50;6.75;;;;;;;;;;5069517;28;20033;-81
2023/03/07 11:17:40;;;;;;;12.23;6.13;;;;;;;;;;5052503;28;20029;-79
2023/03/07 11:20:26;;;;;;;14.63;6.50;;;;;;;;;;5065186;28;20041;-81
2023/03/07 11:23:12;;;;;;;12.02;6.18;;;;;;;;;;5055137;28;20075;-78
2023/03/07 11:25:38;;;;;;;12.57;6.30;;;;;;;;;;5057025;28;20079;-81
2023/03/07 11:28:22;;;;;;;12.20;6.25;;;;;;;;;;5043179;28;20045;-78
2023/03/07 11:30:55;;;;;;;10.98;5.88;;;;;;;;;;5028342;28;20053;-78
2023/03/07 11:33:25;;;;;;;11.63;5.80;;;;;;;;;;5026903;28;20049;-79
2023/03/07 11:35:58;;;;;;;15.35;5.68;;;;;;;;;;5030144;28;20099;-80
2023/03/07 11:38:44;;;;;;;11.40;5.65;;;;;;;;;;5034559;28;20050;-79
2023/03/07 11:41:14;;;;;;;10.07;5.68;;;;;;;;;;5034296;28;20045;-80
2023/03/07 11:43:56;;;;;;;11.43;5.65;;;;;;;;;;5031392;28;20064;-78
2023/03/07 11:46:37;;;;;;;11.43;5.93;;;;;;;;;;5032285;28;20045;-80
2023/03/07 11:49:04;;;;;;;12.57;6.43;;;;;;;;;;5035095;28;20041;-81
2023/03/07 11:51:30;;;;;;;12.25;6.07;;;;;;;;;;5013513;28;20521;-80
2023/03/07 11:54:05;;;;;;;12.55;5.45;;;;;;;;;;5014861;28;20097;-80
2023/03/07 11:56:35;;;;;;;11.43;5.80;;;;;;;;;;5015014;28;20525;-79
2023/03/07 11:59:01;;;;;;;12.35;6.40;;;;;;;;;;5015761;28;20088;-80
2023/03/07 12:01:37;;;;;;;12.40;6.03;;;;;;;;;;5031797;28;20056;-80
2023/03/07 12:04:22;;;;;;;10.35;5.55;;;;;;;;;;5030867;28;20521;-81
2023/03/07 12:07:17;;;;;;;11.65;5.60;;;;;;;;;;5015365;28;20050;-80
2023/03/07 12:09:44;;;;;;;12.23;5.85;;;;;;;;;;5025874;28;20133;-79
2023/03/07 12:12:42;;;;;;;10.57;6.15;;;;;;;;;;5037471;28;20141;-80
2023/03/07 12:15:24;;;;;;;10.68;5.53;;;;;;;;;;5036889;28;20042;-81
2023/03/07 12:18:02;;;;;;;11.63;5.65;;;;;;;;;;5036688;28;20037;-80
2023/03/07 12:20:28;;;;;;;12.45;5.78;;;;;;;;;;5036123;28;20510;-79
2023/03/07 12:23:01;;;;;;;13.05;5.80;;;;;;;;;;5037224;28;20064;-80
2023/03/07 12:25:47;;;;;;;11.27;5.78;;;;;;;;;;5019495;28;20458;-80
2023/03/07 12:28:27;;;;;;;10.48;5.53;;;;;;;;;;5049860;28;20045;-79
2023/03/07 12:31:06;;;;;;;12.10;5.72;;;;;;;;;;5055454;28;20148;-79
2023/03/07 12:33:35;;;;;;;9.70;5.10;;;;;;;;;;5052157;28;20040;-79
2023/03/07 12:36:07;;;;;;;12.32;5.75;;;;;;;;;;5054238;28;20051;-79
2023/03/07 12:38:34;;;;;;;10.82;6.10;;;;;;;;;;5059869;28;20049;-79
2023/03/07 12:41:20;;;;;;;11.20;5.60;;;;;;;;;;5065961;28;20041;-79
2023/03/07 12:43:51;;;;;;;11.57;5.78;;;;;;;;;;5062480;28;20158;-79
2023/03/07 12:46:30;;;;;;;11.73;6.03;;;;;;;;;;5058176;28;20059;-79
2023/03/07 12:49:09;;;;;;;10.35;5.80;;;;;;;;;;5059060;28;20167;-80
2023/03/07 12:51:37;;;;;;;9.65;5.13;;;;;;;;;;5063934;28;20041;-80
2023/03/07 12:54:13;;;;;;;10.38;5.60;;;;;;;;;;5064589;28;20140;-81
2023/03/07 12:56:59;;;;;;;13.18;5.60;;;;;;;;;;5061232;28;20275;-79
2023/03/07 12:59:26;;;;;;;;;;;;;;;;;;5068930;28;20124;-79
2023/03/07 13:01:58;;;;;;;11.38;5.43;;;;;;;;;;5065265;28;19951;-82
2023/03/07 13:04:36;;;;;;;11.23;5.28;;;;;;;;;;5065945;28;20436;-79
2023/03/07 13:07:09;;;;;;;12.00;5.38;;;;;;;;;;5057174;28;20048;-78
2023/03/07 13:09:38;;;;;;;10.27;5.55;;;;;;;;;;5052794;28;20489;-78
2023/03/07 13:12:22;;;;;;;12.00;5.53;;;;;;;;;;5058561;28;20045;-79
2023/03/07 13:14:56;;;;;;;12.27;5.60;;;;;;;;;;5085178;28;20053;-79
2023/03/07 13:17:34;;;;;;;11.98;5.35;;;;;;;;;;5048441;28;20041;-79
2023/03/07 13:20:03;;;;;;;9.80;5.25;;;;;;;;;;5051012;28;20123;-78
2023/03/07 13:22:30;;;;;;;11.57;5.55;;;;;;;;;;5049905;28;20041;-79
2023/03/07 13:24:59;;;;;;;12.55;6.18;;;;;;;;;;5051980;28;20065;-79
2023/03/07 13:27:26;;;;;;;13.90;5.53;;;;;;;;;;5051409;28;20053;-80
2023/03/07 13:30:10;;;;;;;11.93;5.93;;;;;;;;;;5054753;28;20053;-80
2023/03/07 13:32:49;;;;;;;10.40;5.13;;;;;;;;;;5058254;28;20041;-80
2023/03/07 13:35:22;;;;;;;9.80;5.15;;;;;;;;;;5056737;28;20071;-81
2023/03/07 13:37:48;;;;;;;12.35;6.38;;;;;;;;;;5059827;28;20045;-81
2023/03/07 13:40:33;;;;;;;10.23;5.32;;;;;;;;;;5058706;28;20509;-80
2023/03/07 13:43:01;;;;;;;11.67;5.37;;;;;;;;;;5058998;28;20112;-81
2023/03/07 13:45:36;;;;;;;12.90;5.82;;;;;;;;;;5058572;28;20041;-81
2023/03/07 13:48:03;;;;;;;;;;;;;;;;;;5056439;28;20060;-80
2023/03/07 13:50:35;;;;;;;10.57;5.55;;;;;;;;;;5057956;28;19943;-81
2023/03/07 13:53:06;;;;;;;16.15;5.38;;;;;;;;;;5058685;28;20401;-80
2023/03/07 13:55:38;;;;;;;10.95;5.68;;;;;;;;;;5039823;28;20036;-79
2023/03/07 13:58:12;;;;;;;14.48;5.82;;;;;;;;;;5039376;28;20108;-80
2023/03/07 14:00:47;;;;;;;12.32;5.13;;;;;;;;;;5058366;28;20041;-80
2023/03/07 14:03:22;;;;;;;10.85;5.75;;;;;;;;;;5054691;28;20108;-81
2023/03/07 14:05:51;;;;;;;;;;;;;;;;;;5050232;28;20037;-79
2023/03/07 14:08:21;;;;;;;12.32;5.63;;;;;;;;;;5025973;28;19925;-79
2023/03/07 14:10:48;;;;;;;10.73;4.93;;;;;;;;;;5028381;28;20134;-81
2023/03/07 14:13:25;;;;;;;12.52;5.43;;;;;;;;;;5033133;28;20048;-80
2023/03/07 14:15:55;;;;;;;11.60;5.38;;;;;;;;;;5034944;28;20094;-80
2023/03/07 14:18:28;;;;;;;12.82;5.28;;;;;;;;;;5033120;28;20057;-80
2023/03/07 14:20:56;;;;;;;10.02;5.50;;;;;;;;;;5053420;28;20032;-81
2023/03/07 14:23:22;;;;;;;8.57;4.40;;;;;;;;;;5036647;28;20075;-80
2023/03/07 14:26:10;;;;;;;11.70;5.47;;;;;;;;;;5034274;28;20111;-80
2023/03/07 14:28:45;;;;;;;11.95;5.00;;;;;;;;;;5063257;28;20045;-80
2023/03/07 14:31:19;;;;;;;10.30;5.32;;;;;;;;;;5026720;28;20533;-80
2023/03/07 14:33:45;;;;;;;12.20;4.93;;;;;;;;;;5033862;28;20045;-80
2023/03/07 14:36:15;;;;;;;12.48;5.00;;;;;;;;;;5033811;28;20049;-79
2023/03/07 14:38:43;;;;;;;10.38;4.95;;;;;;;;;;5032764;28;20049;-83
2023/03/07 14:41:21;;;;;;;11.00;5.40;;;;;;;;;;5015975;28;20046;-80